Time;durP1;ratioP1;P1;durP2;ratioP2;P2;SDS_P1;SDS_P2;PMS_P1;PMS_P2;Temp;Humidity;BMP_temperature;BMP_pressure;BME280_temperature;BME280_humidity;BME280_pressure;Samples;Min_cycle;Max_cycle;Signal;HPM_P1;HPM_P2
2021/10/01 00:01:47;;;;;;;;;13.75;13.50;;;;;18.10;69.63;101723.59;146608;570;46018;-78
2021/10/01 00:04:21;;;;;;;;;16.00;14.75;;;;;18.04;71.47;101732.19;146604;580;47013;-78
2021/10/01 00:06:56;;;;;;;;;17.25;16.00;;;;;17.96;73.23;101731.87;146609;578;46010;-75
2021/10/01 00:09:30;;;;;;;;;17.75;13.25;;;;;17.88;72.55;101732.41;146608;700;46018;-78
2021/10/01 00:12:06;;;;;;;;;14.25;12.75;;;;;17.83;72.03;101740.12;146603;658;47010;-78
2021/10/01 00:14:41;;;;;;;;;14.75;13.00;;;;;17.81;71.16;101735.66;146607;592;46018;-77
2021/10/01 00:17:16;;;;;;;;;12.00;11.00;;;;;17.81;72.19;101743.53;146610;644;46018;-77
2021/10/01 00:19:52;;;;;;;;;15.50;13.50;;;;;17.81;72.36;101743.53;146605;570;46018;-79
2021/10/01 00:22:26;;;;;;;;;12.00;11.00;;;;;17.83;73.05;101729.63;146605;656;46018;-81
2021/10/01 00:25:00;;;;;;;;;15.50;13.00;;;;;17.88;71.12;101728.09;146608;602;46018;-80
2021/10/01 00:27:33;;;;;;;;;14.75;13.50;;;;;17.90;72.33;101729.03;146612;564;46010;-80
2021/10/01 00:30:09;;;;;;;;;14.25;10.50;;;;;17.51;71.42;101665.44;146606;632;47012;-80
2021/10/01 00:32:43;;;;;;;;;16.50;13.25;;;;;17.90;71.10;101734.28;146608;572;46010;-79
2021/10/01 00:35:17;;;;;;;;;13.00;12.00;;;;;17.82;72.03;101719.06;146607;572;47906;-78
2021/10/01 00:37:51;;;;;;;;;12.00;11.50;;;;;17.83;71.54;101721.75;146607;590;47014;-79
2021/10/01 00:40:25;;;;;;;;;13.00;12.00;;;;;17.81;71.79;101725.16;146609;564;46020;-78
2021/10/01 00:42:59;;;;;;;;;16.25;12.75;;;;;17.79;70.80;101719.88;146608;579;46018;-79
2021/10/01 00:45:33;;;;;;;;;15.75;13.50;;;;;17.82;71.80;101722.63;146608;628;46018;-78
2021/10/01 00:48:07;;;;;;;;;18.00;15.75;;;;;17.85;72.84;101709.62;146599;626;47012;-79
2021/10/01 00:50:41;;;;;;;;;14.00;12.50;;;;;17.81;72.26;101701.56;146608;665;46018;-78
2021/10/01 00:53:14;;;;;;;;;19.50;13.75;;;;;17.80;73.41;101707.66;146608;574;46018;-77
2021/10/01 00:55:49;;;;;;;;;13.50;12.75;;;;;17.76;72.75;101722.34;146604;564;46018;-79
2021/10/01 00:58:23;;;;;;;;;15.75;12.50;;;;;17.71;72.59;101709.03;146605;624;47010;-78
2021/10/01 01:01:12;;;;;;;;;17.00;15.00;;;;;17.72;71.74;101717.81;146605;635;46018;-81
2021/10/01 01:03:54;;;;;;;;;15.50;15.50;;;;;17.75;71.53;101704.78;146608;670;46012;-81
2021/10/01 01:07:11;;;;;;;;;15.50;13.50;;;;;16.26;70.32;101423.06;146607;589;46012;-81
2021/10/01 01:10:20;;;;;;;;;15.75;14.75;;;;;17.85;70.29;101691.25;146610;565;46018;-82
2021/10/01 01:13:13;;;;;;;;;21.50;14.25;;;;;17.86;70.65;101677.28;146605;615;46018;-81
2021/10/01 01:15:56;;;;;;;;;17.00;15.00;;;;;17.96;71.23;101684.63;146603;673;46010;-85
2021/10/01 01:18:42;;;;;;;;;16.50;16.00;;;;;17.87;71.95;101679.06;146607;581;46019;-80
2021/10/01 01:21:46;;;;;;;;;18.25;16.50;;;;;17.88;72.07;101686.12;146609;583;46018;-84
2021/10/01 01:25:00;;;;;;;;;14.25;13.75;;;;;16.55;70.23;101456.50;146607;570;47906;-84
2021/10/01 01:28:01;;;;;;;;;17.25;16.50;;;;;17.85;70.55;101674.59;146609;641;46010;-84
2021/10/01 01:30:42;;;;;;;;;15.00;15.00;;;;;17.90;71.12;101673.03;146607;602;46012;-84
2021/10/01 01:33:28;;;;;;;;;17.25;16.75;;;;;17.87;72.21;101662.44;146612;642;46010;-86
2021/10/01 01:36:04;;;;;;;;;15.50;15.50;;;;;17.72;71.96;101631.22;146608;611;46012;-81
2021/10/01 01:38:44;;;;;;;;;16.75;15.50;;;;;17.68;73.07;101637.22;146614;698;46018;-84
2021/10/01 01:41:20;;;;;;;;;16.75;15.00;;;;;17.62;72.23;101635.25;146607;565;46013;-83
2021/10/01 01:43:58;;;;;;;;;19.75;17.50;;;;;17.67;71.69;101644.19;146608;569;46010;-82
2021/10/01 01:46:32;;;;;;;;;18.00;16.00;;;;;17.81;71.43;101667.44;146606;593;47012;-82
2021/10/01 01:49:06;;;;;;;;;16.00;15.00;;;;;17.86;71.69;101673.78;146613;575;46010;-82
2021/10/01 01:51:41;;;;;;;;;16.75;16.00;;;;;17.86;74.12;101679.91;146608;703;46018;-84
2021/10/01 01:54:16;;;;;;;;;16.00;15.00;;;;;17.65;72.66;101647.59;146609;578;47011;-89
2021/10/01 01:56:51;;;;;;;;;18.50;16.25;;;;;17.61;72.67;101637.84;146607;566;47012;-89
2021/10/01 01:59:28;;;;;;;;;14.25;14.25;;;;;17.66;72.40;101641.50;146607;677;47010;-89
2021/10/01 02:02:03;;;;;;;;;16.00;13.25;;;;;17.82;72.59;101680.63;146610;615;46018;-88
2021/10/01 02:04:39;;;;;;;;;18.50;15.50;;;;;17.65;73.96;101651.09;146608;601;46010;-89
2021/10/01 02:07:14;;;;;;;;;18.00;15.00;;;;;17.78;72.99;101683.97;146603;655;47012;-88
2021/10/01 02:09:50;;;;;;;;;19.75;17.25;;;;;17.75;72.44;101684.69;146605;564;46010;-92
2021/10/01 02:12:25;;;;;;;;;17.75;15.50;;;;;17.76;71.86;101677.75;146606;581;46018;-86
2021/10/01 02:15:01;;;;;;;;;19.75;17.50;;;;;17.78;72.94;101687.47;146613;706;45018;-72
2021/10/01 02:17:40;;;;;;;;;13.50;13.25;;;;;17.78;71.79;101689.22;146608;578;46013;-83
2021/10/01 02:20:16;;;;;;;;;15.25;14.25;;;;;17.78;71.85;101690.09;146610;628;46018;-85
2021/10/01 02:22:51;;;;;;;;;19.00;17.50;;;;;17.78;71.91;101690.09;146609;592;46033;-87
2021/10/01 02:28:38;;;;;;;;;17.50;16.25;;;;;17.76;71.16;101683.00;146604;586;47012;-76
2021/10/01 02:31:25;;;;;;;;;15.25;13.75;;;;;17.76;72.05;101685.63;146611;612;46019;-80
2021/10/01 02:34:05;;;;;;;;;20.50;17.50;;;;;17.76;72.30;101676.03;146607;614;46034;-80
2021/10/01 02:36:39;;;;;;;;;18.00;17.50;;;;;17.77;72.62;101667.34;146604;669;46018;-80
2021/10/01 02:39:12;;;;;;;;;18.25;15.25;;;;;17.82;72.16;101667.53;146605;631;46019;-88
2021/10/01 02:41:46;;;;;;;;;17.25;15.25;;;;;17.86;71.73;101679.00;146608;569;47012;-77
2021/10/01 02:44:20;;;;;;;;;20.50;16.50;;;;;17.82;75.41;101685.88;146605;602;47020;-78
2021/10/01 02:46:54;;;;;;;;;18.75;16.75;;;;;17.74;73.31;101689.91;146602;583;48010;-77
2021/10/01 02:49:28;;;;;;;;;17.00;15.00;;;;;17.67;73.42;101686.16;146607;566;46018;-78
2021/10/01 02:52:08;;;;;;;;;18.00;16.75;;;;;17.67;73.46;101680.03;146611;733;46018;-77
2021/10/01 02:54:54;;;;;;;;;16.25;16.00;;;;;17.66;72.09;101679.16;146606;581;46013;-78
2021/10/01 02:57:32;;;;;;;;;16.25;15.50;;;;;17.65;74.27;101679.06;146610;599;46010;-77
2021/10/01 03:00:10;;;;;;;;;19.50;17.25;;;;;17.62;74.12;101676.34;146602;646;47012;-78
2021/10/01 03:02:46;;;;;;;;;18.75;16.75;;;;;17.62;74.37;101682.47;146602;578;46018;-77
2021/10/01 03:05:21;;;;;;;;;19.75;16.00;;;;;17.66;73.27;101673.91;146604;565;46018;-78
2021/10/01 03:07:55;;;;;;;;;17.50;17.00;;;;;17.70;73.39;101685.41;146608;570;47010;-78
2021/10/01 03:10:29;;;;;;;;;13.50;12.75;;;;;17.73;74.14;101690.75;146607;582;46018;-77
2021/10/01 03:13:05;;;;;;;;;15.00;14.50;;;;;17.71;73.40;101681.94;146612;571;46018;-77
2021/10/01 03:15:40;;;;;;;;;13.75;13.25;;;;;17.67;73.12;101674.78;146607;624;46019;-77
2021/10/01 03:18:14;;;;;;;;;12.00;11.00;;;;;17.65;73.49;101677.34;146609;586;46018;-77
2021/10/01 03:20:50;;;;;;;;;16.25;15.75;;;;;17.63;74.46;101691.22;146609;619;46012;-77
2021/10/01 03:23:25;;;;;;;;;18.25;15.25;;;;;17.59;74.40;101689.31;146609;579;45019;-77
2021/10/01 03:25:59;;;;;;;;;15.75;15.75;;;;;17.60;73.08;101694.66;146609;579;46018;-77
2021/10/01 03:28:33;;;;;;;;;15.75;12.50;;;;;17.63;72.82;101688.59;146604;636;46018;-78
2021/10/01 03:31:07;;;;;;;;;15.25;15.25;;;;;17.64;73.03;101700.91;146607;592;46018;-77
2021/10/01 03:33:51;;;;;;;;;15.75;14.00;;;;;17.65;72.68;101702.69;146612;585;47012;-77
2021/10/01 03:36:26;;;;;;;;;3.50;1.00;;;;;17.66;72.79;101691.34;146610;681;46020;-77
2021/10/01 03:39:01;;;;;;;;;18.75;16.75;;;;;17.66;72.78;101689.62;146616;611;46019;-77
2021/10/01 03:41:35;;;;;;;;;18.25;14.00;;;;;17.68;73.17;101681.81;146604;603;47012;-77
2021/10/01 03:44:11;;;;;;;;;15.75;14.50;;;;;17.68;73.95;101693.19;146609;587;46018;-77
2021/10/01 03:46:46;;;;;;;;;19.00;17.00;;;;;17.65;74.32;101710.53;146609;579;46018;-77
2021/10/01 03:49:19;;;;;;;;;13.00;13.00;;;;;17.60;73.95;101712.09;146612;571;46018;-77
2021/10/01 03:51:54;;;;;;;;;17.25;17.00;;;;;17.59;73.57;101705.06;146607;595;46018;-77
2021/10/01 03:54:28;;;;;;;;;17.25;17.00;;;;;17.60;75.00;101715.63;146604;586;46019;-76
2021/10/01 03:57:02;;;;;;;;;15.75;13.75;;;;;17.58;74.58;101706.78;146607;591;46018;-77
2021/10/01 03:59:36;;;;;;;;;15.50;15.25;;;;;17.57;74.93;101698.84;146610;592;46018;-76
2021/10/01 04:02:10;;;;;;;;;14.75;14.75;;;;;17.54;74.96;101708.41;146608;564;46012;-76
2021/10/01 04:04:44;;;;;;;;;19.50;16.50;;;;;17.54;73.96;101712.78;146611;570;46010;-76
2021/10/01 04:07:18;;;;;;;;;21.50;18.25;;;;;17.54;74.06;101711.03;146608;622;46019;-76
2021/10/01 04:09:51;;;;;;;;;15.50;15.50;;;;;17.55;75.08;101717.16;146609;596;46018;-75
2021/10/01 04:12:27;;;;;;;;;17.00;15.50;;;;;17.46;75.53;101716.81;146609;622;46018;-76
2021/10/01 04:15:01;;;;;;;;;15.50;15.50;;;;;17.39;74.96;101706.94;146612;582;46010;-76
2021/10/01 04:17:35;;;;;;;;;16.00;13.25;;;;;17.36;73.81;101727.78;146608;693;46018;-76
2021/10/01 04:20:09;;;;;;;;;16.00;16.00;;;;;17.36;74.07;101719.91;146607;598;46010;-76
2021/10/01 04:22:43;;;;;;;;;23.25;15.75;;;;;17.39;74.04;101723.53;146607;564;47012;-76
2021/10/01 04:25:17;;;;;;;;;16.00;15.00;;;;;17.41;75.15;101723.59;146614;573;45030;-75
2021/10/01 04:27:51;;;;;;;;;18.00;17.00;;;;;17.41;73.98;101713.09;146609;594;46012;-76
2021/10/01 04:30:25;;;;;;;;;18.75;17.75;;;;;17.43;73.70;101709.72;146609;642;46019;-76
2021/10/01 04:33:12;;;;;;;;;20.00;17.50;;;;;17.48;73.79;101721.28;146607;603;47012;-76
2021/10/01 04:35:46;;;;;;;;;21.00;17.00;;;;;17.54;74.14;101734.63;146613;629;46010;-76
2021/10/01 04:38:21;;;;;;;;;21.50;19.25;;;;;17.53;74.05;101732.81;146608;571;46019;-76
2021/10/01 04:40:55;;;;;;;;;17.50;16.00;;;;;17.51;73.96;101726.66;146612;673;46026;-76
2021/10/01 04:43:29;;;;;;;;;19.75;17.25;;;;;17.50;74.93;101724.84;146610;692;46018;-76
2021/10/01 04:46:03;;;;;;;;;19.00;17.25;;;;;17.48;74.95;101721.28;146605;606;46018;-76
2021/10/01 04:48:37;;;;;;;;;20.75;18.50;;;;;17.46;74.61;101720.31;146607;595;46018;-76
2021/10/01 04:51:11;;;;;;;;;18.25;17.00;;;;;17.43;75.66;101727.19;146612;564;46010;-75
2021/10/01 04:53:45;;;;;;;;;22.00;16.00;;;;;17.38;74.15;101731.34;146604;566;46019;-76
2021/10/01 04:56:19;;;;;;;;;17.00;17.00;;;;;17.34;75.10;101738.19;146609;564;46012;-76
2021/10/01 04:58:53;;;;;;;;;17.00;16.00;;;;;17.33;74.72;101733.78;146608;573;47020;-76
2021/10/01 05:01:28;;;;;;;;;17.25;16.75;;;;;17.33;74.60;101719.78;146611;577;46010;-76
2021/10/01 05:04:02;;;;;;;;;21.25;17.50;;;;;17.35;74.60;101721.63;146606;602;47012;-75
2021/10/01 05:06:35;;;;;;;;;22.25;18.50;;;;;17.37;74.45;101722.59;146613;564;46010;-75
2021/10/01 05:09:09;;;;;;;;;19.75;17.75;;;;;17.39;74.64;101718.31;146612;570;45905;-76
2021/10/01 05:11:43;;;;;;;;;16.75;14.50;;;;;17.42;74.53;101728.91;146603;595;46018;-75
2021/10/01 05:14:17;;;;;;;;;17.00;15.75;;;;;17.44;74.12;101736.81;146609;637;46019;-75
2021/10/01 05:16:51;;;;;;;;;20.25;18.25;;;;;17.43;74.26;101725.44;146613;582;46012;-76
2021/10/01 05:19:25;;;;;;;;;17.00;15.25;;;;;17.45;74.01;101734.28;146607;576;46012;-75
2021/10/01 05:21:59;;;;;;;;;15.50;15.50;;;;;17.47;73.83;101721.22;146610;628;46018;-75
2021/10/01 05:24:34;;;;;;;;;14.50;14.50;;;;;17.51;73.87;101733.62;146608;669;46018;-75
2021/10/01 05:27:08;;;;;;;;;18.00;16.75;;;;;17.54;75.78;101744.25;146610;612;46026;-76
2021/10/01 05:29:42;;;;;;;;;19.75;18.00;;;;;17.47;76.07;101758.81;146609;698;46030;-75
2021/10/01 05:32:16;;;;;;;;;17.50;16.50;;;;;17.40;74.39;101759.41;146612;567;46018;-75
2021/10/01 05:34:51;;;;;;;;;17.75;17.75;;;;;17.37;73.93;101753.16;146608;623;46905;-76
2021/10/01 05:37:25;;;;;;;;;17.25;15.75;;;;;17.36;74.03;101759.25;146603;595;46019;-75
2021/10/01 05:39:59;;;;;;;;;15.50;14.00;;;;;17.35;74.29;101760.94;146606;563;47012;-75
2021/10/01 05:42:33;;;;;;;;;19.00;18.25;;;;;17.40;74.07;101766.38;146607;641;47010;-76
2021/10/01 05:45:07;;;;;;;;;18.00;17.50;;;;;17.44;74.08;101770.91;146609;601;46012;-76
2021/10/01 05:47:41;;;;;;;;;19.50;18.50;;;;;17.49;75.08;101767.62;146612;610;46018;-75
2021/10/01 05:50:15;;;;;;;;;16.50;15.25;;;;;17.55;73.81;101761.75;146605;677;46018;-76
2021/10/01 05:52:53;;;;;;;;;16.50;15.00;;;;;17.58;74.27;101767.12;146610;565;47010;-76
2021/10/01 05:55:27;;;;;;;;;19.75;16.75;;;;;17.58;74.51;101756.63;146605;565;46018;-75
2021/10/01 05:58:02;;;;;;;;;15.00;14.00;;;;;17.58;74.02;101766.22;146609;584;46019;-75
2021/10/01 06:00:36;;;;;;;;;16.00;15.25;;;;;17.55;74.12;101764.38;146609;615;46018;-75
2021/10/01 06:03:10;;;;;;;;;15.00;13.50;;;;;17.55;74.56;101775.75;146605;584;46018;-75
2021/10/01 06:05:45;;;;;;;;;16.50;14.75;;;;;17.55;74.02;101774.88;146608;656;46906;-76
2021/10/01 06:08:19;;;;;;;;;13.75;13.50;;;;;17.54;74.88;101771.34;146607;667;47010;-76
2021/10/01 06:10:53;;;;;;;;;13.25;13.25;;;;;17.53;73.99;101774.78;146602;598;47022;-76
2021/10/01 06:13:29;;;;;;;;;15.50;12.00;;;;;17.57;74.15;101769.66;146609;570;46019;-76
2021/10/01 06:16:03;;;;;;;;;17.00;12.25;;;;;17.59;73.95;101761.03;146607;563;46018;-76
2021/10/01 06:18:37;;;;;;;;;13.00;12.75;;;;;17.64;73.95;101767.34;146610;565;46018;-76
2021/10/01 06:21:11;;;;;;;;;12.50;12.50;;;;;17.69;73.75;101760.53;146606;699;47012;-75
2021/10/01 06:23:45;;;;;;;;;11.00;11.00;;;;;17.75;73.94;101760.78;146610;615;46018;-75
2021/10/01 06:26:19;;;;;;;;;14.25;14.25;;;;;17.82;73.99;101763.66;146607;673;46018;-75
2021/10/01 06:28:53;;;;;;;;;14.50;12.25;;;;;17.87;74.17;101776.13;146605;595;46019;-75
2021/10/01 06:31:27;;;;;;;;;13.75;12.75;;;;;17.86;76.12;101782.22;146608;655;46018;-76
2021/10/01 06:34:05;;;;;;;;;15.50;15.25;;;;;17.80;76.29;101781.09;146610;622;46020;-76
2021/10/01 06:36:39;;;;;;;;;23.75;22.75;;;;;17.69;76.35;101789.37;146609;715;47012;-75
2021/10/01 06:39:14;;;;;;;;;29.75;25.25;;;;;17.61;75.11;101796.09;146614;648;46010;-76
2021/10/01 06:41:48;;;;;;;;;25.25;22.75;;;;;17.51;74.23;101794.84;146606;626;46012;-76
2021/10/01 06:44:29;;;;;;;;;24.00;22.00;;;;;17.54;74.06;101792.34;146608;613;46018;-76
2021/10/01 06:47:09;;;;;;;;;25.25;21.75;;;;;17.60;74.45;101790.75;146608;575;47012;-76
2021/10/01 06:50:01;;;;;;;;;21.50;20.50;;;;;17.69;74.37;101793.75;146610;583;46018;-75
2021/10/01 08:20:01;;;;;;;;;10.00;8.50;;;;;19.10;69.30;101796.34;146600;594;47012;-78
2021/10/01 08:22:35;;;;;;;;;9.25;9.25;;;;;19.24;69.65;101802.94;146603;671;46018;-77
2021/10/01 08:25:10;;;;;;;;;10.75;10.75;;;;;19.34;69.08;101814.62;146603;622;46012;-78
2021/10/01 08:27:45;;;;;;;;;9.50;9.50;;;;;19.37;68.87;101814.75;146602;604;46019;-79
2021/10/01 08:30:19;;;;;;;;;13.00;10.75;;;;;19.42;69.38;101821.06;146602;648;46018;-79
2021/10/01 08:32:55;;;;;;;;;10.67;8.67;;;;;19.53;68.76;101817.03;146603;643;46019;-78
2021/10/01 08:35:29;;;;;;;;;13.00;11.75;;;;;19.67;68.57;101806.97;146599;674;47012;-79
2021/10/01 08:38:04;;;;;;;;;11.50;10.25;;;;;19.86;67.97;101804.91;146607;573;46010;-79
2021/10/01 08:40:38;;;;;;;;;12.25;10.50;;;;;20.00;67.55;101808.84;146598;680;46018;-73
2021/10/01 08:43:12;;;;;;;;;13.00;11.00;;;;;20.08;67.07;101813.50;146602;594;46019;-78
2021/10/01 08:45:47;;;;;;;;;10.00;10.00;;;;;20.08;66.37;101812.59;146599;647;46905;-76
2021/10/01 08:48:23;;;;;;;;;11.00;10.00;;;;;20.09;65.79;101803.84;146603;618;46018;-78
2021/10/01 08:50:57;;;;;;;;;8.33;7.00;;;;;20.15;66.77;101805.78;146604;639;46012;-78
2021/10/01 08:53:32;;;;;;;;;12.00;10.75;;;;;20.40;67.43;101810.00;146600;571;46018;-78
2021/10/01 08:56:07;;;;;;;;;15.50;10.50;;;;;20.73;67.12;101821.53;146599;594;47905;-78
2021/10/01 08:58:42;;;;;;;;;11.00;11.00;;;;;20.98;66.59;101801.97;146604;651;46018;-78
2021/10/01 09:01:16;;;;;;;;;10.00;8.50;;;;;21.13;64.88;101801.47;146599;669;47012;-77
2021/10/01 09:03:50;;;;;;;;;14.00;11.50;;;;;21.25;63.89;101802.66;146602;627;46019;-77
2021/10/01 09:06:26;;;;;;;;;11.67;11.67;;;;;21.27;64.67;101809.72;146599;575;47012;-78
2021/10/01 09:09:14;;;;;;;;;12.00;11.50;;;;;21.35;64.49;101802.00;146601;659;46018;-77
2021/10/01 09:11:50;;;;;;;;;8.33;8.33;;;;;21.43;60.93;101811.00;146604;571;46018;-77
2021/10/01 09:14:31;;;;;;;;;11.25;9.75;;;;;21.47;61.61;101802.34;146602;667;47010;-76
2021/10/01 09:17:14;;;;;;;;;12.00;10.00;;;;;21.53;61.66;101799.84;146603;662;46012;-76
2021/10/01 09:19:50;;;;;;;;;12.00;10.00;;;;;21.54;58.77;101808.62;146605;578;46019;-77
2021/10/01 09:22:33;;;;;;;;;11.33;10.00;;;;;21.55;60.53;101806.03;146604;623;47012;-79
2021/10/01 09:25:17;;;;;;;;;12.00;10.67;;;;;21.68;60.95;101801.91;146605;632;47010;-77
2021/10/01 09:27:54;;;;;;;;;11.00;11.00;;;;;21.96;59.71;101806.06;146598;669;47012;-77
2021/10/01 09:30:28;;;;;;;;;9.33;8.33;;;;;22.15;53.25;101802.09;146604;580;46913;-76
2021/10/01 09:33:28;;;;;;;;;8.67;8.33;;;;;21.42;58.93;101622.78;146601;577;47012;-85
2021/10/01 09:36:13;;;;;;;;;11.67;10.00;;;;;22.72;56.23;101797.94;146606;601;46024;-77
2021/10/01 09:38:47;;;;;;;;;12.00;12.00;;;;;22.74;55.03;101797.13;146600;600;46018;-76
2021/10/01 09:41:26;;;;;;;;;9.67;9.67;;;;;22.85;55.60;101801.69;146603;611;46019;-77
2021/10/01 09:44:19;;;;;;;;;12.67;12.00;;;;;23.01;57.04;101798.50;146600;563;47012;-76
2021/10/01 09:46:55;;;;;;;;;11.00;9.33;;;;;23.14;54.40;101794.28;146604;565;46018;-76
2021/10/01 09:49:37;;;;;;;;;9.67;8.00;;;;;23.18;52.89;101790.84;146601;608;47012;-75
2021/10/01 09:52:12;;;;;;;;;10.33;8.33;;;;;23.21;51.68;101785.63;146603;646;46018;-77
2021/10/01 09:54:52;;;;;;;;;12.25;10.25;;;;;23.17;45.07;101781.12;146601;594;46906;-77
2021/10/01 09:57:26;;;;;;;;;15.33;11.67;;;;;23.04;49.06;101783.56;146603;635;46018;-77
2021/10/01 10:00:00;;;;;;;;;9.00;9.00;;;;;22.88;44.83;101783.25;146599;563;47020;-76
2021/10/01 10:02:40;;;;;;;;;11.33;10.00;;;;;22.65;48.40;101785.44;146602;667;47011;-77
2021/10/01 10:05:14;;;;;;;;;9.00;8.33;;;;;22.56;50.49;101786.19;146601;571;47906;-76
2021/10/01 10:07:51;;;;;;;;;12.00;11.00;;;;;22.65;44.25;101777.53;146602;598;46018;-76
2021/10/01 10:10:25;;;;;;;;;11.33;10.00;;;;;22.79;47.03;101786.59;146601;590;46012;-76
2021/10/01 10:13:09;;;;;;;;;9.00;8.67;;;;;22.96;45.05;101779.00;146604;581;46010;-76
2021/10/01 10:15:43;;;;;;;;;12.33;9.00;;;;;23.11;46.52;101779.25;146599;579;47012;-76
2021/10/01 10:18:26;;;;;;;;;11.00;10.00;;;;;23.11;47.42;101775.72;146609;570;46010;-77
2021/10/01 10:21:00;;;;;;;;;10.33;10.33;;;;;23.14;51.01;101773.13;146603;577;46018;-77
2021/10/01 10:23:34;;;;;;;;;10.00;10.00;;;;;23.33;51.80;101771.66;146604;580;46018;-77
2021/10/01 10:26:09;;;;;;;;;10.00;9.67;;;;;23.71;49.94;101767.88;146601;667;47906;-78
2021/10/01 10:28:45;;;;;;;;;11.00;11.00;;;;;24.11;49.22;101759.53;146605;570;46018;-78
2021/10/01 10:31:22;;;;;;;;;12.00;9.67;;;;;24.40;44.79;101757.22;146600;570;46019;-78
2021/10/01 10:33:57;;;;;;;;;9.67;8.00;;;;;24.56;38.82;101777.75;146602;598;46013;-77
2021/10/01 10:36:48;;;;;;;;;13.67;11.00;;;;;24.60;41.66;101765.41;146602;694;46018;-78
2021/10/01 10:39:43;;;;;;;;;9.67;9.00;;;;;23.28;49.39;101565.19;146607;627;46011;-77
2021/10/01 10:42:20;;;;;;;;;11.33;11.33;;;;;24.31;45.86;101754.47;146601;604;46039;-77
2021/10/01 10:44:57;;;;;;;;;11.33;10.00;;;;;24.43;46.56;101758.19;146604;650;46030;-78
2021/10/01 10:48:02;;;;;;;;;12.00;11.00;;;;;24.64;44.46;101759.25;146600;592;47031;-78
2021/10/01 10:50:41;;;;;;;;;11.00;9.00;;;;;24.85;41.59;101753.25;146602;622;46010;-78
2021/10/01 10:53:19;;;;;;;;;10.00;8.33;;;;;25.01;38.47;101752.50;146599;649;46018;-79
2021/10/01 10:56:08;;;;;;;;;11.00;9.33;;;;;24.20;40.18;101574.12;146603;570;46914;-78
2021/10/01 10:58:45;;;;;;;;;6.67;6.67;;;;;24.99;40.97;101734.81;146600;647;46018;-79
2021/10/01 11:01:33;;;;;;;;;8.33;7.33;;;;;24.84;44.87;101731.16;146603;653;46018;-80
2021/10/01 11:04:30;;;;;;;;;10.00;10.00;;;;;24.59;45.11;101731.81;146600;606;47021;-76
2021/10/01 11:07:04;;;;;;;;;9.67;9.33;;;;;24.24;39.99;101734.97;146604;676;47010;-82
2021/10/01 11:09:40;;;;;;;;;9.00;8.00;;;;;23.82;41.74;101722.97;146602;576;46018;-80
2021/10/01 11:12:27;;;;;;;;;12.00;11.00;;;;;23.45;45.86;101727.72;146603;602;46018;-80
2021/10/01 11:15:21;;;;;;;;;8.00;8.00;;;;;23.45;46.71;101729.50;146604;565;46018;-82
2021/10/01 11:18:18;;;;;;;;;11.00;10.00;;;;;23.67;48.13;101717.44;146602;647;46018;-81
2021/10/01 11:20:52;;;;;;;;;7.67;7.67;;;;;23.70;43.82;101713.09;146601;564;47907;-83
2021/10/01 11:23:26;;;;;;;;;8.33;8.33;;;;;23.66;44.27;101711.25;146601;564;47010;-85
2021/10/01 11:26:00;;;;;;;;;10.00;8.33;;;;;23.59;43.53;101706.75;146601;606;46018;-84
2021/10/01 11:28:36;;;;;;;;;9.67;9.67;;;;;23.54;45.93;101712.88;146606;624;45020;-83
2021/10/01 11:31:09;;;;;;;;;8.33;8.33;;;;;23.43;40.35;101721.56;146604;585;46018;-83
2021/10/01 11:33:59;;;;;;;;;10.67;10.67;;;;;23.17;41.70;101702.62;146608;596;46018;-81
2021/10/01 11:36:33;;;;;;;;;7.33;7.33;;;;;22.89;40.83;101695.09;146602;596;46018;-81
2021/10/01 11:39:16;;;;;;;;;11.67;10.67;;;;;22.71;45.78;101698.31;146605;641;46031;-84
2021/10/01 11:41:52;;;;;;;;;8.67;8.00;;;;;22.56;41.84;101706.91;146605;610;46018;-79
2021/10/01 11:44:28;;;;;;;;;12.33;11.33;;;;;22.46;45.19;101705.84;146605;606;47010;-79
2021/10/01 11:47:10;;;;;;;;;8.67;8.67;;;;;22.44;46.47;101707.56;146603;604;47906;-78
2021/10/01 11:49:45;;;;;;;;;9.67;9.00;;;;;22.51;44.18;101695.34;146603;570;47010;-79
2021/10/01 11:52:19;;;;;;;;;9.00;9.00;;;;;22.56;45.75;101688.41;146600;627;46018;-80
2021/10/01 11:54:55;;;;;;;;;13.67;10.67;;;;;22.68;46.67;101692.97;146603;570;46010;-79
2021/10/01 11:57:44;;;;;;;;;11.00;9.00;;;;;22.88;46.08;101699.50;146600;624;47012;-80
2021/10/01 12:00:22;;;;;;;;;12.00;9.00;;;;;22.98;43.89;101693.53;146605;634;46018;-79
2021/10/01 12:02:58;;;;;;;;;9.33;9.33;;;;;23.20;44.61;101688.56;146602;572;46906;-79
2021/10/01 12:05:38;;;;;;;;;8.00;8.00;;;;;23.56;42.84;101692.59;146604;571;46018;-79
2021/10/01 12:08:14;;;;;;;;;10.67;8.00;;;;;23.69;36.52;101691.91;146601;650;46019;-82
2021/10/01 12:10:54;;;;;;;;;10.33;10.00;;;;;23.54;41.07;101687.28;146605;594;47018;-80
2021/10/01 12:13:29;;;;;;;;;11.00;9.33;;;;;23.22;38.30;101689.47;146602;654;47012;-82
2021/10/01 12:16:15;;;;;;;;;8.00;7.33;;;;;22.94;40.24;101690.81;146605;604;46018;-81
2021/10/01 12:18:59;;;;;;;;;7.33;6.67;;;;;22.67;39.32;101686.81;146602;595;47021;-81
2021/10/01 12:21:35;;;;;;;;;10.00;9.00;;;;;22.52;41.03;101689.19;146605;571;46026;-79
2021/10/01 12:24:14;;;;;;;;;10.67;9.00;;;;;22.43;45.03;101689.94;146599;565;46019;-82
2021/10/01 12:26:51;;;;;;;;;7.25;6.25;;;;;22.39;38.28;101685.44;146604;697;46018;-81
2021/10/01 12:29:29;;;;;;;;;8.67;7.00;;;;;22.29;37.84;101686.12;146600;575;46018;-84
2021/10/01 12:32:07;;;;;;;;;8.33;8.33;;;;;22.22;40.37;101674.56;146603;616;46019;-81
2021/10/01 12:34:46;;;;;;;;;6.33;6.33;;;;;22.25;43.66;101676.38;146604;636;47012;-81
2021/10/01 12:37:23;;;;;;;;;5.67;5.67;;;;;21.37;38.99;101515.37;146603;655;46018;-80
2021/10/01 12:40:00;;;;;;;;;9.67;8.00;;;;;22.31;42.45;101687.97;146603;594;46027;-76
2021/10/01 12:42:36;;;;;;;;;8.67;6.33;;;;;22.28;41.65;101676.44;146604;607;46018;-76
2021/10/01 12:45:21;;;;;;;;;6.33;6.33;;;;;22.26;43.70;101675.53;146602;584;46018;-76
2021/10/01 12:47:56;;;;;;;;;8.33;7.33;;;;;22.24;43.20;101667.56;146603;607;46018;-75
2021/10/01 12:50:37;;;;;;;;;8.67;8.00;;;;;22.27;45.69;101662.31;146604;596;46018;-75
2021/10/01 12:53:11;;;;;;;;;9.33;7.67;;;;;22.26;41.55;101671.13;146601;585;46019;-75
2021/10/01 12:55:47;;;;;;;;;9.75;8.50;;;;;22.24;42.70;101667.56;146601;635;47023;-76
2021/10/01 12:58:24;;;;;;;;;6.67;6.00;;;;;22.20;41.45;101667.47;146605;641;46031;-77
2021/10/01 13:00:58;;;;;;;;;7.00;7.00;;;;;22.13;42.66;101669.09;146603;639;46023;-80
2021/10/01 13:03:32;;;;;;;;;6.00;6.00;;;;;22.05;40.64;101668.03;146605;573;46012;-79
2021/10/01 13:06:08;;;;;;;;;7.67;7.67;;;;;21.98;40.37;101667.03;146601;641;46018;-78
2021/10/01 13:08:42;;;;;;;;;8.67;8.67;;;;;21.92;40.92;101664.28;146601;564;46010;-80
2021/10/01 13:11:16;;;;;;;;;11.33;8.33;;;;;21.96;43.27;101660.81;146602;570;46031;-79
2021/10/01 13:13:50;;;;;;;;;9.00;8.67;;;;;22.02;43.86;101660.06;146604;564;46027;-78
2021/10/01 13:16:30;;;;;;;;;7.67;6.67;;;;;22.07;39.32;101656.66;146601;564;46019;-79
2021/10/01 13:19:12;;;;;;;;;6.33;6.00;;;;;21.17;41.48;101502.66;146605;686;46010;-78
2021/10/01 13:21:58;;;;;;;;;6.33;6.00;;;;;22.03;41.33;101643.37;146596;595;47013;-78
2021/10/01 13:24:32;;;;;;;;;8.00;8.00;;;;;22.14;41.49;101649.72;146602;640;46018;-79
2021/10/01 13:27:12;;;;;;;;;8.00;6.67;;;;;22.28;41.61;101652.66;146603;593;47012;-78
2021/10/01 13:29:46;;;;;;;;;7.67;6.67;;;;;22.46;42.01;101650.34;146602;638;46019;-79